createdAt,value
2018-06-25T00:00:59.056Z,5.60
2018-06-25T00:03:25.971Z,4.93
2018-06-25T00:05:52.884Z,5.07
2018-06-25T00:08:19.813Z,5.00
2018-06-25T00:10:46.724Z,6.07
2018-06-25T00:13:13.641Z,4.37
2018-06-25T00:15:40.545Z,4.77
2018-06-25T00:18:07.520Z,4.40
2018-06-25T00:20:34.475Z,4.73
2018-06-25T00:23:01.385Z,4.30
2018-06-25T00:25:28.317Z,4.93
2018-06-25T00:27:55.235Z,4.60
2018-06-25T00:30:22.181Z,4.50
2018-06-25T00:32:49.107Z,4.40
2018-06-25T00:35:16.033Z,3.93
2018-06-25T00:37:42.966Z,4.80
2018-06-25T00:40:09.896Z,4.33
2018-06-25T00:42:36.857Z,4.57
2018-06-25T00:45:03.809Z,4.57
2018-06-25T00:47:30.733Z,4.60
2018-06-25T00:49:57.652Z,5.03
2018-06-25T00:52:24.604Z,4.20
2018-06-25T00:54:51.523Z,4.20
2018-06-25T00:57:18.461Z,5.17
2018-06-25T00:59:51.377Z,4.90
2018-06-25T01:02:18.527Z,3.70
2018-06-25T01:04:45.487Z,4.40
2018-06-25T01:07:17.694Z,5.00
2018-06-25T01:09:44.620Z,4.60
2018-06-25T01:12:11.828Z,4.93
2018-06-25T01:14:38.793Z,3.83
2018-06-25T01:17:06.292Z,4.30
2018-06-25T01:19:33.212Z,4.37
2018-06-25T01:22:00.130Z,4.73
2018-06-25T01:24:27.194Z,4.53
2018-06-25T01:26:54.116Z,4.37
2018-06-25T01:29:21.046Z,4.30
2018-06-25T01:31:47.960Z,4.67
2018-06-25T01:34:14.881Z,5.00
2018-06-25T01:36:41.800Z,4.53
2018-06-25T01:39:09.797Z,4.57
2018-06-25T01:41:36.709Z,5.00
2018-06-25T01:44:03.653Z,4.33
2018-06-25T01:46:30.559Z,4.87
2018-06-25T01:48:57.485Z,5.07
2018-06-25T01:51:24.404Z,5.20
2018-06-25T01:53:51.330Z,4.67
2018-06-25T01:56:18.244Z,4.43
2018-06-25T01:58:45.180Z,4.20
2018-06-25T02:01:12.089Z,4.97
2018-06-25T02:03:38.994Z,5.20
2018-06-25T02:06:05.901Z,6.03
2018-06-25T02:08:32.838Z,5.20
2018-06-25T02:10:59.756Z,5.87
2018-06-25T02:13:26.683Z,4.83
2018-06-25T02:15:53.597Z,4.67
2018-06-25T02:18:20.539Z,5.20
2018-06-25T02:20:47.449Z,5.50
2018-06-25T02:23:14.350Z,5.43
2018-06-25T02:25:41.261Z,4.47
2018-06-25T02:28:08.190Z,5.40
2018-06-25T02:30:35.469Z,5.77
2018-06-25T02:33:02.490Z,5.37
2018-06-25T02:35:29.354Z,6.10
2018-06-25T02:37:56.268Z,4.67
2018-06-25T02:40:23.196Z,5.33
2018-06-25T02:42:50.124Z,5.30
2018-06-25T02:45:17.094Z,5.47
2018-06-25T02:47:43.997Z,5.60
2018-06-25T02:50:10.942Z,5.60
2018-06-25T02:52:37.857Z,5.03
2018-06-25T02:55:04.793Z,5.43
2018-06-25T02:57:31.721Z,5.07
2018-06-25T02:59:58.697Z,5.07
2018-06-25T03:02:25.615Z,6.27
2018-06-25T03:04:52.541Z,6.30
2018-06-25T03:07:19.469Z,5.00
2018-06-25T03:09:46.402Z,5.17
2018-06-25T03:12:13.331Z,5.80
2018-06-25T03:14:40.283Z,5.43
2018-06-25T03:17:07.233Z,5.73
2018-06-25T03:19:34.161Z,5.40
2018-06-25T03:22:01.105Z,6.07
2018-06-25T03:24:28.031Z,6.40
2018-06-25T03:26:54.953Z,5.13
2018-06-25T03:29:21.899Z,5.70
2018-06-25T03:31:48.840Z,6.97
2018-06-25T03:34:15.784Z,7.30
2018-06-25T03:36:42.716Z,7.40
2018-06-25T03:39:10.905Z,6.07
2018-06-25T03:41:37.849Z,6.70
2018-06-25T03:44:04.797Z,5.87
2018-06-25T03:46:31.742Z,6.90
2018-06-25T03:48:58.677Z,6.73
2018-06-25T03:51:25.633Z,7.03
2018-06-25T03:53:52.573Z,6.97
2018-06-25T03:56:19.524Z,6.93
2018-06-25T03:58:46.451Z,7.37
2018-06-25T04:01:13.402Z,7.40
2018-06-25T04:03:40.328Z,6.60
2018-06-25T04:06:07.281Z,7.40
2018-06-25T04:08:34.214Z,7.20
2018-06-25T04:11:01.166Z,7.23
2018-06-25T04:13:28.100Z,6.93
2018-06-25T04:15:55.025Z,7.40
2018-06-25T04:18:21.969Z,6.80
2018-06-25T04:20:49.010Z,6.70
2018-06-25T04:23:15.857Z,6.03
2018-06-25T04:25:42.830Z,5.90
2018-06-25T04:28:09.757Z,6.90
2018-06-25T04:30:36.712Z,6.93
2018-06-25T04:33:03.740Z,6.33
2018-06-25T04:35:30.722Z,6.30
2018-06-25T04:37:57.673Z,7.63
2018-06-25T04:40:24.601Z,6.50
2018-06-25T04:42:51.543Z,6.73
2018-06-25T04:45:18.481Z,6.30
2018-06-25T04:47:45.448Z,6.03
2018-06-25T04:50:12.387Z,6.10
2018-06-25T04:52:39.323Z,6.07
2018-06-25T04:55:06.282Z,5.67
2018-06-25T04:57:33.236Z,5.83
2018-06-25T05:00:00.477Z,5.57
2018-06-25T05:02:27.414Z,5.90
2018-06-25T05:04:54.357Z,6.40
2018-06-25T05:07:21.303Z,5.67
2018-06-25T05:09:48.243Z,5.73
2018-06-25T05:12:15.187Z,5.03
2018-06-25T05:14:42.126Z,4.90
2018-06-25T05:17:09.066Z,5.90
2018-06-25T05:19:36.014Z,6.20
2018-06-25T05:22:02.968Z,6.67
2018-06-25T05:24:29.893Z,5.83
2018-06-25T05:26:56.865Z,5.40
2018-06-25T05:29:23.805Z,5.50
2018-06-25T05:31:50.757Z,5.63
2018-06-25T05:34:17.717Z,5.73
2018-06-25T05:36:44.668Z,5.53
2018-06-25T05:39:12.021Z,6.03
2018-06-25T05:41:39.280Z,5.70
2018-06-25T05:44:06.343Z,6.17
2018-06-25T05:46:33.297Z,6.23
2018-06-25T05:49:00.230Z,5.57
2018-06-25T05:51:27.172Z,5.57
2018-06-25T05:53:54.093Z,5.90
2018-06-25T05:56:21.205Z,5.47
2018-06-25T05:58:48.117Z,6.10
2018-06-25T06:01:15.057Z,5.40
2018-06-25T06:03:41.997Z,5.87
2018-06-25T06:06:08.933Z,5.63
2018-06-25T06:08:35.859Z,5.70
2018-06-25T06:11:02.813Z,5.50
2018-06-25T06:13:29.737Z,6.20
2018-06-25T06:15:56.708Z,5.80
2018-06-25T06:18:23.646Z,5.70
2018-06-25T06:20:50.597Z,5.87
2018-06-25T06:23:17.527Z,5.90
2018-06-25T06:25:44.464Z,6.50
2018-06-25T06:28:11.397Z,6.33
2018-06-25T06:30:38.385Z,6.87
2018-06-25T06:33:05.458Z,6.50
2018-06-25T06:35:32.373Z,7.07
2018-06-25T06:37:59.331Z,6.47
2018-06-25T06:40:26.919Z,7.13
2018-06-25T06:42:53.885Z,6.73
2018-06-25T06:45:20.852Z,6.93
2018-06-25T06:47:47.752Z,6.90
2018-06-25T06:50:14.677Z,8.40
2018-06-25T06:52:41.617Z,6.90
2018-06-25T06:55:08.590Z,7.63
2018-06-25T06:57:35.612Z,7.80
2018-06-25T07:00:02.522Z,8.60
2018-06-25T07:02:29.461Z,7.50
2018-06-25T07:04:56.402Z,7.47
2018-06-25T07:07:23.373Z,7.33
2018-06-25T07:09:50.285Z,8.60
2018-06-25T07:12:17.209Z,6.50
2018-06-25T07:14:44.144Z,7.37
2018-06-25T07:17:11.062Z,8.20
2018-06-25T07:19:37.968Z,7.97
2018-06-25T07:22:04.888Z,7.30
2018-06-25T07:24:31.813Z,7.67
2018-06-25T07:26:58.770Z,7.10
2018-06-25T07:29:25.713Z,7.57
2018-06-25T07:31:52.646Z,8.13
2018-06-25T07:34:19.596Z,6.50
2018-06-25T07:36:46.553Z,6.70
2018-06-25T07:39:13.514Z,6.67
2018-06-25T07:41:40.464Z,6.80
2018-06-25T07:44:07.409Z,7.27
2018-06-25T07:46:34.366Z,7.60
2018-06-25T07:49:01.350Z,7.23
2018-06-25T07:51:28.304Z,7.50
2018-06-25T07:53:55.254Z,6.03
2018-06-25T07:56:22.205Z,7.07
2018-06-25T07:58:49.149Z,6.80
2018-06-25T08:01:16.075Z,7.37
2018-06-25T08:03:43.072Z,7.07
2018-06-25T08:06:09.953Z,8.17
2018-06-25T08:08:36.926Z,8.23
2018-06-25T08:11:03.872Z,9.27
2018-06-25T08:13:30.800Z,9.00
2018-06-25T08:15:57.725Z,7.20
2018-06-25T08:18:24.689Z,7.43
2018-06-25T08:20:51.611Z,7.27
2018-06-25T08:23:18.540Z,7.13
2018-06-25T08:25:45.474Z,7.57
2018-06-25T08:28:12.417Z,6.73
2018-06-25T08:30:39.351Z,7.97
2018-06-25T08:33:06.297Z,6.70
2018-06-25T08:35:33.262Z,7.13
2018-06-25T08:38:00.193Z,6.60
2018-06-25T08:40:27.117Z,6.53
2018-06-25T08:42:54.021Z,7.00
2018-06-25T08:45:20.951Z,6.40
2018-06-25T08:47:47.873Z,6.90
2018-06-25T08:50:14.781Z,6.03
2018-06-25T08:52:41.695Z,5.67
2018-06-25T08:55:08.637Z,6.13
2018-06-25T08:57:35.582Z,6.40
2018-06-25T09:00:02.525Z,5.23
2018-06-25T09:02:29.461Z,6.00
2018-06-25T09:04:56.377Z,6.07
2018-06-25T09:07:23.329Z,5.83
2018-06-25T09:09:50.300Z,5.67
2018-06-25T09:12:17.192Z,6.13
2018-06-25T09:14:44.141Z,6.07
2018-06-25T09:17:11.114Z,6.73
2018-06-25T09:19:38.054Z,5.97
2018-06-25T09:22:05.097Z,6.33
2018-06-25T09:24:31.999Z,6.43
2018-06-25T09:26:58.897Z,6.47
2018-06-25T09:29:25.849Z,6.77
2018-06-25T09:31:52.769Z,6.03
2018-06-25T09:34:25.421Z,6.57
2018-06-25T09:36:52.368Z,6.23
2018-06-25T09:39:19.309Z,6.30
2018-06-25T09:41:46.601Z,6.20
2018-06-25T09:44:13.186Z,6.23
2018-06-25T09:46:40.149Z,5.60
2018-06-25T09:49:07.082Z,6.20
2018-06-25T09:51:34.020Z,6.53
2018-06-25T09:54:01.008Z,6.17
2018-06-25T09:56:27.944Z,6.17
2018-06-25T09:58:54.905Z,5.43
2018-06-25T10:01:21.837Z,6.20
2018-06-25T10:03:48.801Z,6.57
2018-06-25T10:06:15.760Z,6.37
2018-06-25T10:08:42.698Z,6.43
2018-06-25T10:11:09.625Z,6.90
2018-06-25T10:13:36.590Z,6.23
2018-06-25T10:16:03.545Z,6.67
2018-06-25T10:18:30.496Z,6.17
2018-06-25T10:20:57.516Z,6.07
2018-06-25T10:23:24.722Z,6.13
2018-06-25T10:25:51.662Z,6.00
2018-06-25T10:28:18.598Z,6.20
2018-06-25T10:30:45.559Z,6.60
2018-06-25T10:33:12.480Z,6.97
2018-06-25T10:35:39.412Z,6.43
2018-06-25T10:38:06.371Z,6.47
2018-06-25T10:40:33.306Z,7.17
2018-06-25T10:43:00.233Z,6.20
2018-06-25T10:45:27.208Z,6.23
2018-06-25T10:47:54.137Z,6.03
2018-06-25T10:50:21.093Z,5.37
2018-06-25T10:52:48.028Z,5.50
2018-06-25T10:55:14.978Z,5.67
2018-06-25T10:57:41.937Z,6.03
2018-06-25T11:00:09.117Z,5.27
2018-06-25T11:02:35.860Z,5.23
2018-06-25T11:05:02.939Z,4.97
2018-06-25T11:07:29.925Z,5.73
2018-06-25T11:09:56.833Z,5.43
2018-06-25T11:12:23.804Z,5.40
2018-06-25T11:14:50.754Z,5.53
2018-06-25T11:17:17.705Z,5.43
2018-06-25T11:19:44.642Z,5.23
2018-06-25T11:22:11.565Z,5.23
2018-06-25T11:24:38.506Z,5.30
2018-06-25T11:27:05.607Z,5.27
2018-06-25T11:29:32.405Z,4.80
2018-06-25T11:31:59.329Z,4.77
2018-06-25T11:34:26.297Z,5.40
2018-06-25T11:36:53.225Z,5.03
2018-06-25T11:39:20.161Z,5.87
2018-06-25T11:41:47.088Z,4.67
2018-06-25T11:44:14.042Z,5.53
2018-06-25T11:46:41.006Z,4.90
2018-06-25T11:49:07.949Z,5.40
2018-06-25T11:51:34.917Z,5.43
2018-06-25T11:54:01.861Z,4.73
2018-06-25T11:56:28.826Z,5.57
2018-06-25T11:58:55.756Z,5.10
2018-06-25T12:01:22.693Z,4.93
2018-06-25T12:03:49.625Z,4.60
2018-06-25T12:06:16.569Z,5.10
2018-06-25T12:08:43.494Z,4.90
2018-06-25T12:11:10.434Z,5.40
2018-06-25T12:13:37.355Z,5.13
2018-06-25T12:16:04.517Z,4.50
2018-06-25T12:18:31.724Z,4.77
2018-06-25T12:20:58.682Z,4.63
2018-06-25T12:23:25.678Z,5.13
2018-06-25T12:25:52.637Z,5.30
2018-06-25T12:28:19.565Z,4.70
2018-06-25T12:30:46.525Z,5.17
2018-06-25T12:33:13.453Z,4.77
2018-06-25T12:35:40.385Z,4.47
2018-06-25T12:38:07.315Z,4.60
2018-06-25T12:40:34.265Z,4.70
2018-06-25T12:43:01.201Z,5.20
2018-06-25T12:45:28.139Z,4.90
2018-06-25T12:47:55.076Z,5.17
2018-06-25T12:50:22.057Z,4.90
2018-06-25T12:52:48.974Z,4.50
2018-06-25T12:55:15.937Z,4.57
2018-06-25T12:57:42.865Z,5.20
2018-06-25T13:00:09.818Z,4.40
2018-06-25T13:02:36.732Z,5.33
2018-06-25T13:05:04.245Z,4.57
2018-06-25T13:07:31.198Z,4.53
2018-06-25T13:09:58.161Z,4.63
2018-06-25T13:12:25.105Z,4.63
2018-06-25T13:14:52.042Z,4.97
2018-06-25T13:17:18.969Z,5.60
2018-06-25T13:19:45.899Z,5.63
2018-06-25T13:22:13.397Z,6.20
2018-06-25T13:24:40.338Z,5.53
2018-06-25T13:27:07.280Z,5.13
2018-06-25T13:29:34.210Z,4.70
2018-06-25T13:32:01.157Z,5.30
2018-06-25T13:34:28.074Z,5.20
2018-06-25T13:36:54.986Z,4.77
2018-06-25T13:39:21.915Z,3.90
2018-06-25T13:41:48.858Z,3.97
2018-06-25T13:44:15.780Z,4.20
2018-06-25T13:46:42.720Z,4.03
2018-06-25T13:49:09.634Z,4.20
2018-06-25T13:51:36.599Z,4.10
2018-06-25T13:54:03.564Z,3.70
2018-06-25T13:56:30.513Z,3.60
2018-06-25T13:58:57.434Z,3.20
2018-06-25T14:01:24.369Z,3.20
2018-06-25T14:03:51.279Z,3.40
2018-06-25T14:06:18.201Z,3.57
2018-06-25T14:08:45.130Z,3.10
2018-06-25T14:11:12.061Z,3.30
2018-06-25T14:13:38.968Z,3.40
2018-06-25T14:16:05.948Z,3.90
2018-06-25T14:18:32.868Z,4.50
2018-06-25T14:20:59.815Z,3.70
2018-06-25T14:23:26.757Z,4.37
2018-06-25T14:25:59.376Z,3.90
2018-06-25T14:28:30.361Z,3.53
2018-06-25T14:31:03.136Z,3.63
2018-06-25T14:33:35.867Z,4.10
2018-06-25T14:36:02.804Z,3.20
2018-06-25T14:38:29.709Z,3.47
2018-06-25T14:40:56.649Z,3.27
2018-06-25T14:43:23.565Z,3.00
2018-06-25T14:45:50.473Z,3.37
2018-06-25T14:48:17.407Z,3.60
2018-06-25T14:50:44.301Z,3.60
2018-06-25T14:53:11.237Z,3.37
2018-06-25T14:55:38.176Z,2.80
2018-06-25T14:58:05.146Z,3.00
2018-06-25T15:00:32.049Z,3.20
2018-06-25T15:02:58.966Z,3.23
2018-06-25T15:05:25.889Z,3.00
2018-06-25T15:07:52.793Z,3.03
2018-06-25T15:10:19.708Z,3.73
2018-06-25T15:12:46.675Z,2.60
2018-06-25T15:15:13.591Z,3.27
2018-06-25T15:17:40.514Z,2.90
2018-06-25T15:20:07.453Z,3.27
2018-06-25T15:22:34.341Z,3.80
2018-06-25T15:25:01.284Z,3.70
2018-06-25T15:27:28.221Z,3.70
2018-06-25T15:29:55.141Z,4.23
2018-06-25T15:32:24.649Z,3.73
2018-06-25T15:34:51.553Z,3.60
2018-06-25T15:37:18.488Z,4.23
2018-06-25T15:39:45.414Z,4.70
2018-06-25T15:42:12.333Z,3.60
2018-06-25T15:44:39.232Z,3.67
2018-06-25T15:47:06.133Z,3.90
2018-06-25T15:49:33.047Z,4.13
2018-06-25T15:51:59.961Z,4.83
2018-06-25T15:54:26.877Z,4.50
2018-06-25T15:56:53.792Z,4.87
2018-06-25T15:59:20.716Z,4.80
2018-06-25T16:01:47.609Z,4.80
2018-06-25T16:04:14.529Z,4.87
2018-06-25T16:06:41.544Z,4.80
2018-06-25T16:09:08.381Z,4.67
2018-06-25T16:11:35.333Z,4.83
2018-06-25T16:14:02.701Z,4.93
2018-06-25T16:16:29.647Z,4.43
2018-06-25T16:18:56.560Z,4.90
2018-06-25T16:21:23.524Z,4.93
2018-06-25T16:23:50.446Z,4.67
2018-06-25T16:26:17.379Z,4.70
2018-06-25T16:28:44.333Z,5.50
2018-06-25T16:31:11.220Z,4.80
2018-06-25T16:33:38.116Z,4.80
2018-06-25T16:36:05.049Z,4.63
2018-06-25T16:38:31.932Z,4.67
2018-06-25T16:40:58.865Z,6.80
2018-06-25T16:43:25.774Z,7.37
2018-06-25T16:45:52.701Z,4.93
2018-06-25T16:48:19.600Z,4.50
2018-06-25T16:50:46.523Z,4.93
2018-06-25T16:53:13.424Z,4.90
2018-06-25T16:55:40.341Z,6.43
2018-06-25T16:58:07.388Z,5.63
2018-06-25T17:00:34.345Z,5.33
2018-06-25T17:03:01.254Z,6.63
2018-06-25T17:05:28.237Z,5.77
2018-06-25T17:07:55.180Z,5.70
2018-06-25T17:10:22.113Z,4.97
2018-06-25T17:13:04.246Z,5.33
2018-06-25T17:15:31.876Z,4.97
2018-06-25T17:17:58.893Z,5.33
2018-06-25T17:20:25.816Z,5.70
2018-06-25T17:22:52.883Z,5.57
2018-06-25T17:25:20.574Z,5.00
2018-06-25T17:27:49.731Z,5.67
2018-06-25T17:30:19.298Z,5.77
2018-06-25T17:33:20.469Z,5.70
2018-06-25T17:35:53.500Z,5.63
2018-06-25T17:39:26.629Z,5.70
2018-06-25T17:45:12.148Z,5.77
2018-06-25T17:47:56.953Z,6.07
2018-06-25T17:50:28.496Z,5.70
2018-06-25T18:24:37.365Z,6.90
2018-06-25T18:27:14.234Z,6.60
2018-06-25T18:29:41.156Z,6.00
2018-06-25T18:32:08.089Z,6.43
2018-06-25T18:34:35.003Z,6.77
2018-06-25T18:37:03.973Z,6.10
2018-06-25T18:39:33.048Z,5.43
2018-06-25T18:42:06.597Z,6.13
2018-06-25T18:44:35.575Z,4.93
2018-06-25T18:47:04.829Z,7.30
2018-06-25T18:49:32.057Z,7.43
2018-06-25T18:51:59.030Z,6.20
2018-06-25T18:54:25.961Z,5.43
2018-06-25T18:56:52.869Z,5.73
2018-06-25T18:59:19.826Z,4.80
2018-06-25T19:01:46.757Z,4.90
2018-06-25T19:04:13.701Z,5.00
2018-06-25T19:06:40.625Z,4.90
2018-06-25T19:09:08.642Z,5.30
2018-06-25T19:11:35.561Z,4.73
2018-06-25T19:14:02.535Z,5.23
2018-06-25T19:16:29.463Z,4.33
2018-06-25T19:18:56.411Z,4.90
2018-06-25T19:21:23.644Z,5.27
2018-06-25T19:23:51.036Z,5.00
2018-06-25T19:26:17.957Z,4.73
2018-06-25T19:28:44.939Z,4.67
2018-06-25T19:31:11.861Z,5.00
2018-06-25T19:33:38.817Z,5.70
2018-06-25T19:36:05.777Z,5.73
2018-06-25T19:38:32.705Z,5.20
2018-06-25T19:40:59.634Z,5.57
2018-06-25T19:43:26.574Z,5.60
2018-06-25T19:45:53.496Z,5.27
2018-06-25T19:48:20.434Z,6.20
2018-06-25T19:50:47.336Z,5.43
2018-06-25T19:53:14.272Z,5.57
2018-06-25T19:55:41.194Z,5.30
2018-06-25T19:58:08.112Z,5.40
2018-06-25T20:00:35.032Z,5.40
2018-06-25T20:03:01.969Z,5.50
2018-06-25T20:05:28.903Z,5.53
2018-06-25T20:07:55.838Z,5.83
2018-06-25T20:10:22.765Z,5.10
2018-06-25T20:12:49.709Z,5.40
2018-06-25T20:15:16.657Z,5.60
2018-06-25T20:17:43.687Z,5.70
2018-06-25T20:20:10.637Z,5.83
2018-06-25T20:22:37.578Z,5.27
2018-06-25T20:25:05.908Z,5.80
2018-06-25T20:27:32.824Z,5.97
2018-06-25T20:29:59.753Z,5.10
2018-06-25T20:32:26.684Z,5.73
2018-06-25T20:34:53.615Z,6.07
2018-06-25T20:37:20.557Z,5.60
2018-06-25T20:39:48.283Z,5.97
2018-06-25T20:42:15.236Z,6.37
2018-06-25T20:44:42.210Z,6.27
2018-06-25T20:47:09.146Z,6.33
2018-06-25T20:49:36.081Z,6.37
2018-06-25T20:52:03.027Z,7.13
2018-06-25T20:54:29.949Z,6.50
2018-06-25T20:56:56.910Z,6.50
2018-06-25T20:59:23.816Z,6.47
2018-06-25T21:01:50.741Z,5.90
2018-06-25T21:04:17.669Z,6.37
2018-06-25T21:06:44.613Z,6.63
2018-06-25T21:09:12.110Z,6.70
2018-06-25T21:11:39.575Z,6.37
2018-06-25T21:14:06.497Z,6.07
2018-06-25T21:16:33.461Z,6.33
2018-06-25T21:19:00.433Z,6.33
2018-06-25T21:21:27.373Z,5.50
2018-06-25T21:23:54.347Z,5.73
2018-06-25T21:26:21.284Z,6.63
2018-06-25T21:28:48.227Z,5.43
2018-06-25T21:31:15.177Z,6.23
2018-06-25T21:33:42.093Z,6.27
2018-06-25T21:36:09.053Z,6.97
2018-06-25T21:38:35.947Z,6.73
2018-06-25T21:41:02.914Z,6.33
2018-06-25T21:43:29.840Z,6.50
2018-06-25T21:45:56.774Z,6.40
2018-06-25T21:48:23.696Z,6.20
2018-06-25T21:50:50.637Z,7.00
2018-06-25T21:53:17.598Z,6.27
2018-06-25T21:55:44.817Z,7.20
2018-06-25T21:58:11.768Z,7.20
2018-06-25T22:00:49.870Z,6.17
2018-06-25T22:03:16.930Z,6.30
2018-06-25T22:05:43.869Z,6.20
2018-06-25T22:08:11.228Z,6.30
2018-06-25T22:10:38.399Z,6.33
2018-06-25T22:13:05.535Z,7.10
2018-06-25T22:15:32.613Z,6.50
2018-06-25T22:18:00.084Z,7.30
2018-06-25T22:20:27.053Z,6.60
2018-06-25T22:22:54.162Z,7.30
2018-06-25T22:25:21.363Z,6.77
2018-06-25T22:27:48.323Z,6.83
2018-06-25T22:30:15.268Z,7.57
2018-06-25T22:32:42.268Z,6.70
2018-06-25T22:35:09.769Z,6.67
2018-06-25T22:37:36.873Z,7.00
2018-06-25T22:40:03.789Z,8.13
2018-06-25T22:42:30.929Z,7.63
2018-06-25T22:44:58.174Z,7.17
2018-06-25T22:47:25.110Z,7.27
2018-06-25T22:49:52.244Z,7.60
2018-06-25T22:52:19.219Z,6.90
2018-06-25T22:54:46.521Z,6.87
2018-06-25T22:57:13.605Z,6.93
2018-06-25T22:59:40.733Z,6.27
2018-06-25T23:02:08.041Z,6.83
2018-06-25T23:04:35.141Z,6.87
2018-06-25T23:07:02.270Z,6.67
2018-06-25T23:09:29.201Z,6.47
2018-06-25T23:11:56.155Z,6.60
2018-06-25T23:14:23.076Z,6.33
2018-06-25T23:16:50.017Z,6.53
2018-06-25T23:19:16.958Z,6.27
2018-06-25T23:21:43.885Z,6.60
2018-06-25T23:24:10.801Z,5.90
2018-06-25T23:26:37.721Z,6.30
2018-06-25T23:29:04.674Z,6.60
2018-06-25T23:31:31.674Z,6.80
2018-06-25T23:33:58.629Z,7.00
2018-06-25T23:36:25.574Z,7.17
2018-06-25T23:38:52.525Z,7.50
2018-06-25T23:41:19.440Z,7.50
2018-06-25T23:43:46.371Z,7.53
2018-06-25T23:46:13.324Z,6.63
2018-06-25T23:48:40.287Z,7.83
2018-06-25T23:51:07.206Z,7.37
2018-06-25T23:53:34.134Z,7.33
2018-06-25T23:56:01.074Z,7.13
2018-06-25T23:58:28.005Z,7.80
